Piedmont Triad International Airport
KGSO : now visible

Airfield :











YOU CAN JOIN US ON...

 
LOGIN :

Register | Disclaimer

   EN    FR    IT 

 









Legend :    VFR   Marginal VFR   IFR   Intensive IFR   Very Intensive IFR
Visi :
Ceiling :
>= 8 km
>= 3000ft
5 to 8 km
1000 to 3000 ft
1500m to 5 km
500 to 1000 ft
800 to 1500m
200 to 500 ft
< 800m
< 200 ft
Symbols :   Thunderstorms  Fog  Heavy snow  Heavy precipitations  Wind > 20 kt






- Airport Elevation : 925 ft
- IATA code : GSO


KGSO - Piedmont Triad International

CURRENT METAR :
  • 172154Z 06005KT 10SM SCT250 05/M11 A3062 RMK AO2 SLP373 T00501106

EXPIRED METARs :
  • 172054Z 06008KT 10SM SCT250 07/M11 A3061 RMK AO2 SLP370 T00671111 55007
  • 171954Z VRB05KT 10SM SCT250 07/M10 A3060 RMK AO2 SLP368 T00671100

TAF KGSO
Valid from the 17 at 19:00 until the 18 at 18:00 UTC


171928Z 1719/1818 03008KT P6SM BKN250
FM172300 10004KT P6SM BKN100 OVC250
FM181200 15005KT P6SM BKN020 OVC060
TEMPO 1814/1818 3SM -RA BR SCT005 BKN012



MET'MAP, your aeronautical weather chart ! - Copyright ORBIFLY December 2007 - Disclaimer

ORBIFLY MET'MAP TEAM :

Programming & Development : Alexandra Zaïnal
Concept & original design : Baudouin d'Aumeries
Assistance for programming : Marc-Olivier Méhu
Technical & hardware support : Manuel Goepfert

Contact : metmap@orbifly.com




SOURCES & CREDITS :

   NOAA       Earth
Advisory